Time;durP1;ratioP1;P1;durP2;ratioP2;P2;SDS_P1;SDS_P2;PMS_P1;PMS_P2;Temp;Humidity;BMP_temperature;BMP_pressure;BME280_temperature;BME280_humidity;BME280_pressure;Samples;Min_cycle;Max_cycle;Signal;HPM_P1;HPM_P2
2022/06/18 00:00:28;;;;;;;11.60;9.07;;;;;;;20.03;86.45;99308.91;5111807;28;20677;-86
2022/06/18 00:02:54;;;;;;;11.90;9.20;;;;;;;19.95;86.30;99317.50;5111944;28;20266;-84
2022/06/18 00:05:21;;;;;;;12.53;9.50;;;;;;;19.96;86.51;99329.53;5111940;28;20226;-83
2022/06/18 00:07:50;;;;;;;13.97;9.33;;;;;;;19.87;87.33;99330.53;5111998;28;20614;-84
2022/06/18 00:10:19;;;;;;;14.53;9.30;;;;;;;19.79;87.74;99333.13;5112021;28;20225;-86
2022/06/18 00:15:33;;;;;;;14.47;9.43;;;;;;;19.60;89.51;99335.03;5111992;28;20216;-84
2022/06/18 00:17:59;;;;;;;12.60;9.00;;;;;;;19.57;89.91;99334.56;5111890;28;20216;-83
2022/06/18 00:20:28;;;;;;;13.57;9.57;;;;;;;19.54;89.89;99334.88;5111390;28;20315;-83
2022/06/18 00:22:58;;;;;;;12.87;8.93;;;;;;;19.57;90.23;99327.56;5111983;28;20738;-84
2022/06/18 00:25:31;;;;;;;12.07;8.67;;;;;;;19.55;89.95;99331.34;5111217;28;20239;-84
2022/06/18 00:27:58;;;;;;;10.80;8.73;;;;;;;19.48;90.65;99330.34;5111646;28;20237;-85
2022/06/18 00:30:28;;;;;;;10.93;8.63;;;;;;;19.47;90.81;99329.53;5111696;28;20235;-85
2022/06/18 00:32:55;;;;;;;11.20;8.40;;;;;;;19.40;90.99;99338.94;5111613;28;20220;-84
2022/06/18 00:35:21;;;;;;;9.97;7.77;;;;;;;19.34;91.02;99337.78;5111406;28;20230;-86
2022/06/18 00:37:52;;;;;;;11.53;8.43;;;;;;;19.29;90.94;99332.28;5111045;28;20565;-83
2022/06/18 00:40:22;;;;;;;11.33;8.13;;;;;;;19.24;90.59;99326.78;5111322;28;20235;-82
2022/06/18 00:42:49;;;;;;;16.53;8.33;;;;;;;19.20;90.58;99333.25;5111539;28;20212;-83
2022/06/18 00:45:22;;;;;;;10.53;7.13;;;;;;;19.14;90.28;99334.72;5111248;28;20649;-83
2022/06/18 00:48:00;;;;;;;10.17;7.30;;;;;;;19.16;89.50;99339.72;5111281;28;20378;-83
2022/06/18 00:50:31;;;;;;;10.03;6.93;;;;;;;19.08;88.74;99332.75;5111201;28;20233;-86
2022/06/18 00:53:05;;;;;;;9.53;6.77;;;;;;;19.11;88.23;99345.41;5111086;28;20220;-83
2022/06/18 00:55:36;;;;;;;9.23;6.33;;;;;;;19.07;88.02;99344.06;5110941;28;20230;-83
2022/06/18 00:58:07;;;;;;;11.10;6.13;;;;;;;19.06;87.92;99337.28;5111339;28;20276;-83
2022/06/18 01:00:38;;;;;;;8.87;6.50;;;;;;;19.04;87.86;99338.41;5111138;28;20229;-83
2022/06/18 01:03:06;;;;;;;10.33;6.83;;;;;;;19.00;87.99;99343.09;5111074;28;20215;-83
2022/06/18 01:05:36;;;;;;;8.13;6.47;;;;;;;18.97;88.29;99333.84;5111031;28;20239;-83
2022/06/18 01:08:10;;;;;;;10.73;6.63;;;;;;;18.95;87.95;99329.81;5111151;28;20224;-85
2022/06/18 01:10:41;;;;;;;11.70;6.33;;;;;;;18.89;88.92;99330.44;5110911;28;20235;-83
2022/06/18 01:13:11;;;;;;;8.17;6.40;;;;;;;18.80;89.42;99326.22;5111111;28;20214;-84
2022/06/18 01:15:39;;;;;;;9.47;6.50;;;;;;;18.70;90.09;99323.69;5110876;28;20729;-82
2022/06/18 01:18:06;;;;;;;9.17;6.47;;;;;;;18.65;90.02;99324.19;5110843;28;20286;-85
2022/06/18 01:20:37;;;;;;;9.07;6.13;;;;;;;18.61;90.69;99330.63;5110468;28;20586;-84
2022/06/18 01:23:14;;;;;;;9.93;6.70;;;;;;;18.52;90.57;99329.78;5110785;28;20225;-84
2022/06/18 01:25:41;;;;;;;12.50;6.60;;;;;;;18.48;90.42;99319.91;5110456;28;20234;-84
2022/06/18 01:28:09;;;;;;;9.07;6.50;;;;;;;18.45;90.96;99333.19;5110952;28;20214;-85
2022/06/18 01:30:39;;;;;;;9.17;6.10;;;;;;;18.45;90.70;99322.81;5110677;28;20668;-82
2022/06/18 01:33:07;;;;;;;8.87;5.87;;;;;;;18.44;90.87;99321.19;5110627;28;20216;-83
2022/06/18 01:35:37;;;;;;;8.53;6.13;;;;;;;18.36;90.80;99313.41;5110587;28;20245;-83
2022/06/18 01:38:04;;;;;;;8.40;6.30;;;;;;;18.30;90.99;99313.03;5110500;28;20205;-85
2022/06/18 01:40:36;;;;;;;8.17;6.37;;;;;;;18.31;91.36;99314.66;5110664;28;20536;-83
2022/06/18 01:43:06;;;;;;;9.50;6.77;;;;;;;18.25;91.96;99323.03;5110843;28;20215;-82
2022/06/18 01:45:35;;;;;;;10.47;6.53;;;;;;;18.24;92.07;99329.19;5110421;28;20307;-83
2022/06/18 01:48:07;;;;;;;9.53;7.00;;;;;;;18.23;92.14;99324.97;5110365;28;20217;-82
2022/06/18 01:50:38;;;;;;;12.40;7.17;;;;;;;18.17;93.51;99332.53;5109379;28;20322;-83
2022/06/18 01:53:09;;;;;;;9.20;6.93;;;;;;;18.07;93.50;99327.47;5110436;28;20201;-82
2022/06/18 01:55:41;;;;;;;9.00;7.10;;;;;;;18.03;94.22;99328.72;5110038;28;20245;-84
2022/06/18 01:58:13;;;;;;;11.90;7.70;;;;;;;18.01;94.50;99331.50;5110530;28;20706;-84
2022/06/18 02:00:41;;;;;;;11.70;8.10;;;;;;;18.00;95.36;99329.03;5110095;28;20232;-85
2022/06/18 02:03:08;;;;;;;13.27;7.17;;;;;;;17.91;95.85;99324.78;5110071;28;20221;-84
2022/06/18 02:05:37;;;;;;;10.40;7.90;;;;;;;17.86;96.10;99323.47;5110223;28;20240;-83
2022/06/18 02:08:04;;;;;;;10.77;8.03;;;;;;;17.82;96.11;99327.31;5109932;28;20312;-84
2022/06/18 02:10:39;;;;;;;10.53;8.03;;;;;;;17.80;96.45;99326.66;5109949;28;20249;-83
2022/06/18 02:13:06;;;;;;;11.87;8.13;;;;;;;17.74;97.06;99329.81;5110240;28;20212;-82
2022/06/18 02:15:38;;;;;;;11.77;8.30;;;;;;;17.72;96.88;99324.00;5109883;28;20246;-85
2022/06/18 02:18:08;;;;;;;12.20;8.47;;;;;;;17.71;97.21;99324.13;5109991;28;20300;-84
2022/06/18 02:20:39;;;;;;;14.03;8.10;;;;;;;17.69;97.30;99319.13;5109369;28;20244;-84
2022/06/18 02:23:06;;;;;;;11.67;8.03;;;;;;;17.68;97.92;99327.81;5109979;28;20205;-85
2022/06/18 02:25:32;;;;;;;13.30;8.40;;;;;;;17.58;98.12;99322.75;5109638;28;20233;-83
2022/06/18 02:28:02;;;;;;;10.83;8.20;;;;;;;17.55;98.46;99330.00;5109850;28;20243;-83
2022/06/18 02:30:35;;;;;;;13.07;8.43;;;;;;;17.52;98.46;99330.31;5109644;28;20233;-83
2022/06/18 02:33:07;;;;;;;10.97;8.57;;;;;;;17.47;99.34;99327.34;5109589;28;20270;-83
2022/06/18 02:35:33;;;;;;;13.37;8.40;;;;;;;17.45;99.79;99322.31;5109601;28;20510;-83
2022/06/18 02:38:00;;;;;;;14.57;8.33;;;;;;;17.47;99.70;99329.94;5109416;28;20213;-83
2022/06/18 02:40:32;;;;;;;12.77;8.87;;;;;;;17.39;99.56;99330.66;5109592;28;20289;-83
2022/06/18 02:43:01;;;;;;;11.73;8.20;;;;;;;17.35;100.00;99330.16;5109591;28;20662;-83
2022/06/18 02:45:29;;;;;;;11.80;8.67;;;;;;;17.34;100.00;99338.88;5109823;28;20682;-83
2022/06/18 02:47:58;;;;;;;12.60;8.87;;;;;;;17.29;100.00;99346.25;5109407;28;20611;-83
2022/06/18 02:50:30;;;;;;;12.03;8.13;;;;;;;17.27;100.00;99353.34;5109416;28;20365;-84
2022/06/18 02:53:00;;;;;;;10.10;8.60;;;;;;;17.23;100.00;99352.00;5109555;28;20209;-83
2022/06/18 02:55:29;;;;;;;11.40;8.20;;;;;;;17.24;100.00;99348.47;5109600;28;20702;-83
2022/06/18 02:58:00;;;;;;;11.30;8.50;;;;;;;17.22;100.00;99349.56;5109597;28;20604;-83
2022/06/18 03:00:26;;;;;;;11.97;8.87;;;;;;;17.19;100.00;99356.66;5108922;28;20232;-83
2022/06/18 03:02:53;;;;;;;11.43;8.10;;;;;;;17.21;100.00;99353.91;5109232;28;20713;-83
2022/06/18 03:05:23;;;;;;;13.43;8.20;;;;;;;17.23;100.00;99352.00;5109063;28;20233;-83
2022/06/18 03:07:50;;;;;;;16.60;7.97;;;;;;;17.27;100.00;99357.69;5109460;28;20250;-82
2022/06/18 03:13:02;;;;;;;10.30;6.80;;;;;;;17.37;98.78;99366.19;5109179;28;20216;-83
2022/06/18 03:15:30;;;;;;;8.33;6.13;;;;;;;17.46;97.88;99374.84;5109066;28;20289;-82
2022/06/18 03:17:56;;;;;;;8.77;6.40;;;;;;;17.53;97.91;99368.91;5109039;28;20206;-84
2022/06/18 03:20:28;;;;;;;9.23;6.60;;;;;;;17.51;97.96;99370.03;5108915;28;20293;-82
2022/06/18 03:22:55;;;;;;;8.30;6.47;;;;;;;17.55;97.80;99377.34;5109181;28;20602;-83
2022/06/18 03:25:22;;;;;;;8.87;6.60;;;;;;;17.58;97.52;99382.22;5108965;28;20231;-82
2022/06/18 03:27:48;;;;;;;10.57;6.30;;;;;;;17.69;97.82;99386.34;5109382;28;20221;-83
2022/06/18 03:30:14;;;;;;;7.93;6.17;;;;;;;17.71;97.33;99387.00;5108688;28;20687;-83
2022/06/18 03:32:40;;;;;;;9.97;7.03;;;;;;;17.74;97.90;99391.88;5109166;28;20864;-82
2022/06/18 03:35:07;;;;;;;9.77;6.67;;;;;;;17.79;97.73;99394.06;5108930;28;20468;-82
2022/06/18 03:37:33;;;;;;;8.63;6.70;;;;;;;17.84;98.29;99403.00;5108715;28;20217;-83
2022/06/18 03:40:00;;;;;;;9.63;7.30;;;;;;;17.82;98.07;99398.94;5109067;28;20225;-83
2022/06/18 03:42:26;;;;;;;10.37;7.00;;;;;;;17.82;98.10;99404.91;5108898;28;20201;-83
2022/06/18 03:44:52;;;;;;;10.00;7.13;;;;;;;17.85;97.91;99407.19;5108642;28;20270;-83
2022/06/18 03:47:19;;;;;;;8.87;7.10;;;;;;;17.95;97.82;99419.22;5108585;28;20226;-84
2022/06/18 03:49:46;;;;;;;8.83;7.20;;;;;;;17.99;97.33;99417.97;5108821;28;20202;-83
2022/06/18 03:52:13;;;;;;;9.73;6.53;;;;;;;18.10;96.95;99420.31;5108622;28;20244;-83
2022/06/18 03:54:39;;;;;;;7.40;6.13;;;;;;;18.17;97.17;99428.28;5108576;28;20270;-83
2022/06/18 03:57:06;;;;;;;8.77;6.40;;;;;;;18.26;95.99;99433.38;5108395;28;20227;-83
2022/06/18 03:59:33;;;;;;;8.57;5.97;;;;;;;18.31;95.70;99432.91;5108496;28;20212;-84
2022/06/18 04:01:59;;;;;;;8.40;6.53;;;;;;;18.37;95.46;99429.72;5108515;28;20562;-84
2022/06/18 04:04:26;;;;;;;9.13;6.50;;;;;;;18.37;95.22;99434.09;5108453;28;20582;-83
2022/06/18 04:06:52;;;;;;;7.67;6.10;;;;;;;18.39;95.07;99430.38;5108231;28;20238;-84
2022/06/18 04:09:18;;;;;;;8.57;6.17;;;;;;;18.39;94.57;99432.16;5108207;28;20210;-83
2022/06/18 04:11:44;;;;;;;7.20;5.87;;;;;;;18.44;93.79;99435.09;5108448;28;20666;-81
2022/06/18 04:14:11;;;;;;;7.67;5.50;;;;;;;18.46;93.18;99430.59;5111468;28;20213;-82
2022/06/18 04:16:37;;;;;;;8.37;6.10;;;;;;;18.59;93.45;99438.75;5111905;28;20234;-82
2022/06/18 04:19:03;;;;;;;8.43;5.83;;;;;;;18.76;92.21;99450.88;5111847;28;20222;-83
2022/06/18 04:21:30;;;;;;;9.97;6.33;;;;;;;18.88;90.87;99463.53;5111943;28;20251;-83
2022/06/18 04:23:56;;;;;;;8.43;6.03;;;;;;;19.02;89.46;99478.47;5111757;28;20213;-84
2022/06/18 04:26:22;;;;;;;7.17;5.87;;;;;;;19.01;89.73;99489.81;5111396;28;20251;-82
2022/06/18 04:28:49;;;;;;;8.40;6.33;;;;;;;19.05;89.27;99491.13;5111606;28;20248;-84
2022/06/18 04:31:16;;;;;;;7.03;5.87;;;;;;;19.10;90.40;99494.06;5111596;28;20603;-84
2022/06/18 04:33:43;;;;;;;6.47;5.60;;;;;;;19.16;90.83;99498.63;5111684;28;20248;-84
2022/06/18 04:36:20;;;;;;;9.03;5.90;;;;;;;19.20;91.29;99502.56;5111689;28;20228;-83
2022/06/18 04:38:46;;;;;;;7.03;6.07;;;;;;;19.29;90.94;99507.78;5111477;28;20228;-84
2022/06/18 04:41:12;;;;;;;7.23;6.00;;;;;;;19.26;90.45;99498.53;5111487;28;20239;-84
2022/06/18 04:43:38;;;;;;;9.17;5.97;;;;;;;19.25;90.34;99501.25;5111566;28;20226;-82
2022/06/18 04:46:05;;;;;;;8.97;6.43;;;;;;;19.23;90.49;99504.03;5111069;28;20229;-84
2022/06/18 04:48:32;;;;;;;8.50;5.90;;;;;;;19.17;90.01;99507.25;5111241;28;20273;-85
2022/06/18 04:50:58;;;;;;;8.30;6.03;;;;;;;19.18;89.91;99520.03;5111126;28;20258;-82
2022/06/18 04:53:24;;;;;;;6.87;5.90;;;;;;;19.17;90.84;99520.22;5111311;28;20213;-82
2022/06/18 04:55:50;;;;;;;10.93;5.70;;;;;;;19.13;91.23;99517.09;5110953;28;20267;-82
2022/06/18 04:58:17;;;;;;;7.83;5.80;;;;;;;19.07;90.99;99522.91;5111159;28;20690;-85
2022/06/18 05:00:44;;;;;;;6.07;5.17;;;;;;;19.04;90.69;99520.63;5111265;28;20232;-86
2022/06/18 05:03:17;;;;;;;11.73;6.50;;;;;;;18.96;91.44;99512.78;5111111;28;20302;-83
2022/06/18 05:05:44;;;;;;;8.83;6.07;;;;;;;18.82;91.35;99492.63;5110784;28;20233;-83
2022/06/18 05:08:10;;;;;;;7.60;5.80;;;;;;;18.68;91.41;99483.66;5111187;28;20315;-83
2022/06/18 05:10:36;;;;;;;8.03;6.30;;;;;;;18.58;93.14;99473.38;5111127;28;20262;-83
2022/06/18 05:13:02;;;;;;;10.97;6.00;;;;;;;18.43;95.51;99470.53;5111110;28;20614;-84
2022/06/18 05:15:29;;;;;;;9.77;6.37;;;;;;;18.10;96.42;99465.13;5110739;28;20225;-89
2022/06/18 05:17:55;;;;;;;9.20;6.63;;;;;;;17.91;98.65;99459.28;5111086;28;20218;-83
2022/06/18 05:20:23;;;;;;;9.97;6.70;;;;;;;17.77;99.64;99448.50;5110601;28;20230;-83
2022/06/18 05:22:50;;;;;;;8.30;6.63;;;;;;;17.55;100.00;99433.41;5111140;28;20221;-83
2022/06/18 05:25:18;;;;;;;8.03;6.47;;;;;;;17.33;100.00;99432.06;5110589;28;20240;-83
2022/06/18 05:27:45;;;;;;;8.27;7.00;;;;;;;17.32;100.00;99427.84;5110662;28;20671;-83
2022/06/18 05:30:14;;;;;;;7.40;6.47;;;;;;;17.29;100.00;99420.38;5111004;28;20209;-83
2022/06/18 05:32:41;;;;;;;10.93;7.20;;;;;;;17.26;100.00;99423.25;5111003;28;20225;-83
2022/06/18 05:35:09;;;;;;;9.30;6.70;;;;;;;17.18;99.52;99426.56;5110872;28;20262;-83
2022/06/18 05:37:37;;;;;;;10.07;6.10;;;;;;;17.18;100.00;99421.41;5110734;28;20695;-83
2022/06/18 05:40:05;;;;;;;10.07;6.90;;;;;;;17.20;100.00;99445.31;5110391;28;20217;-83
2022/06/18 05:42:32;;;;;;;8.97;6.70;;;;;;;17.23;99.96;99460.53;5110552;28;20225;-83
2022/06/18 05:44:58;;;;;;;7.70;6.40;;;;;;;17.24;100.00;99467.31;5110337;28;20209;-83
2022/06/18 05:47:26;;;;;;;9.73;7.00;;;;;;;17.33;100.00;99471.63;5110562;28;20722;-83
2022/06/18 05:49:53;;;;;;;7.57;6.57;;;;;;;17.33;99.11;99466.44;5110251;28;20210;-83
2022/06/18 05:52:20;;;;;;;9.40;7.07;;;;;;;17.41;98.31;99474.31;5110505;28;20678;-85
2022/06/18 05:54:46;;;;;;;9.33;6.77;;;;;;;17.52;98.61;99483.63;5110191;28;20667;-83
2022/06/18 05:57:14;;;;;;;8.00;7.13;;;;;;;17.68;99.50;99492.50;5110084;28;20766;-83
2022/06/18 05:59:40;;;;;;;8.97;6.60;;;;;;;17.93;97.97;99493.59;5110315;28;20212;-83
2022/06/18 06:02:07;;;;;;;8.17;6.87;;;;;;;18.17;97.68;99496.38;5110161;28;20233;-84
2022/06/18 06:04:33;;;;;;;8.57;6.40;;;;;;;18.27;95.04;99496.31;5110013;28;20205;-83
2022/06/18 06:06:59;;;;;;;7.47;6.67;;;;;;;18.44;94.86;99495.47;5109684;28;20298;-84
2022/06/18 06:12:11;;;;;;;7.57;5.93;;;;;;;18.85;91.90;99505.28;5110273;28;20313;-84
2022/06/18 06:14:40;;;;;;;7.73;5.77;;;;;;;18.94;92.64;99505.19;5110133;28;20696;-83
2022/06/18 06:17:12;;;;;;;6.97;5.63;;;;;;;18.89;89.52;99514.41;5110096;28;20623;-85
2022/06/18 06:19:38;;;;;;;8.80;5.83;;;;;;;18.80;90.95;99517.91;5109987;28;20304;-83
2022/06/18 06:22:04;;;;;;;8.23;5.80;;;;;;;18.87;92.25;99519.72;5109486;28;20244;-85
2022/06/18 06:24:30;;;;;;;7.40;5.53;;;;;;;18.93;90.51;99523.47;5109813;28;20223;-83
2022/06/18 06:26:57;;;;;;;10.10;5.60;;;;;;;18.85;90.36;99528.59;5109643;28;20240;-84
2022/06/18 06:29:23;;;;;;;6.63;5.40;;;;;;;18.74;90.94;99520.13;5109895;28;20707;-84
2022/06/18 06:31:50;;;;;;;7.30;5.63;;;;;;;18.78;91.46;99529.22;5109624;28;20618;-84
2022/06/18 06:34:16;;;;;;;7.83;5.27;;;;;;;19.21;90.96;99531.88;5109660;28;20215;-82
2022/06/18 06:36:42;;;;;;;8.17;5.57;;;;;;;19.73;88.84;99541.34;5109238;28;20292;-83
2022/06/18 06:39:08;;;;;;;6.10;5.50;;;;;;;20.17;87.79;99547.06;5109740;28;20214;-84
2022/06/18 06:41:35;;;;;;;7.97;5.23;;;;;;;20.72;87.29;99556.81;5109632;28;20236;-83
2022/06/18 06:44:01;;;;;;;8.20;5.73;;;;;;;20.93;84.99;99548.50;5109904;28;20226;-84
2022/06/18 06:46:27;;;;;;;10.40;5.27;;;;;;;21.25;82.40;99565.78;5109259;28;20757;-82
2022/06/18 06:48:54;;;;;;;7.30;5.67;;;;;;;21.28;80.70;99569.03;5109512;28;20213;-84
2022/06/18 06:51:23;;;;;;;6.37;5.40;;;;;;;21.18;79.82;99567.44;5109558;28;20239;-82
2022/06/18 06:53:50;;;;;;;6.97;5.47;;;;;;;21.15;80.62;99572.19;5109412;28;20635;-84
2022/06/18 06:59:04;;;;;;;7.73;5.17;;;;;;;21.43;81.59;99568.19;5109218;28;20679;-82
2022/06/18 07:01:31;;;;;;;6.93;4.83;;;;;;;21.35;78.07;99580.38;5109276;28;20766;-84
2022/06/18 07:03:58;;;;;;;6.37;4.97;;;;;;;21.08;77.28;99573.81;5109114;28;20215;-80
2022/06/18 07:06:24;;;;;;;6.90;5.17;;;;;;;20.96;79.49;99579.34;5109229;28;20227;-81
2022/06/18 07:08:50;;;;;;;7.07;5.03;;;;;;;20.84;79.71;99585.88;5109233;28;20217;-80
2022/06/18 07:11:17;;;;;;;8.07;5.07;;;;;;;20.74;78.73;99587.81;5109622;28;20268;-80
2022/06/18 07:13:43;;;;;;;6.77;5.17;;;;;;;20.71;81.87;99590.75;5109256;28;20223;-79
2022/06/18 07:16:11;;;;;;;6.53;5.37;;;;;;;20.72;81.39;99584.59;5109306;28;20267;-81
2022/06/18 07:18:37;;;;;;;8.03;5.50;;;;;;;20.67;79.58;99586.88;5109187;28;20737;-81
2022/06/18 07:21:07;;;;;;;6.00;5.27;;;;;;;21.07;79.50;99595.59;5108880;28;20248;-84
2022/06/18 07:23:33;;;;;;;6.37;5.50;;;;;;;21.82;79.62;99592.59;5108962;28;20768;-80
2022/06/18 07:25:59;;;;;;;7.20;4.77;;;;;;;22.11;75.01;99594.53;5108598;28;20252;-85
2022/06/18 07:28:26;;;;;;;6.37;4.67;;;;;;;21.95;73.85;99597.22;5108959;28;20258;-90
2022/06/18 07:30:52;;;;;;;5.80;4.67;;;;;;;21.94;75.39;99596.41;5108814;28;20672;-85
2022/06/18 07:33:21;;;;;;;6.30;5.00;;;;;;;22.47;76.19;99593.97;5109071;28;20298;-83
2022/06/18 07:35:48;;;;;;;4.77;4.13;;;;;;;22.60;71.75;99601.97;5109071;28;20235;-84
2022/06/18 07:38:15;;;;;;;4.93;4.40;;;;;;;22.78;71.48;99601.69;5109011;28;20225;-87
2022/06/18 07:40:46;;;;;;;4.97;4.20;;;;;;;22.95;67.55;99599.75;5108979;28;20240;-82
2022/06/18 07:43:18;;;;;;;5.63;4.33;;;;;;;23.03;65.98;99604.88;5108859;28;20211;-81
2022/06/18 07:45:46;;;;;;;8.60;4.40;;;;;;;23.43;69.67;99601.00;5108930;28;20250;-80
2022/06/18 07:48:13;;;;;;;4.47;3.83;;;;;;;23.24;66.43;99614.59;5110762;28;20220;-81
2022/06/18 07:50:42;;;;;;;7.30;4.13;;;;;;;23.31;64.86;99604.28;5112313;28;20738;-86
2022/06/18 07:53:09;;;;;;;6.10;3.87;;;;;;;23.82;64.03;99614.75;5112603;28;20216;-87
2022/06/18 07:55:36;;;;;;;4.10;3.60;;;;;;;24.01;64.53;99608.94;5112210;28;20312;-84
2022/06/18 07:58:02;;;;;;;4.20;3.55;;;;;;;24.22;66.30;99608.16;5112114;28;20259;-81
2022/06/18 08:00:28;;;;;;;4.32;3.70;;;;;;;24.40;62.81;99612.94;5112007;28;20309;-80
2022/06/18 08:02:54;;;;;;;5.95;3.75;;;;;;;24.54;62.80;99612.09;5112319;28;20237;-86
2022/06/18 08:05:22;;;;;;;7.85;3.42;;;;;;;24.38;59.97;99615.75;5112004;28;20225;-85
2022/06/18 08:07:49;;;;;;;4.00;3.50;;;;;;;24.59;60.36;99609.72;5111807;28;20236;-83
2022/06/18 08:10:16;;;;;;;4.57;3.70;;;;;;;24.43;60.28;99609.97;5111670;28;20240;-81
2022/06/18 08:12:43;;;;;;;8.52;3.72;;;;;;;24.50;59.12;99602.22;5112363;28;20718;-81
2022/06/18 08:15:10;;;;;;;5.88;3.72;;;;;;;24.71;58.80;99610.00;5111700;28;20221;-86
2022/06/18 08:17:36;;;;;;;4.50;3.75;;;;;;;24.88;58.97;99602.69;5112217;28;20285;-85
2022/06/18 08:20:05;;;;;;;7.05;3.60;;;;;;;25.26;59.61;99611.00;5111923;28;20600;-80
2022/06/18 08:22:32;;;;;;;7.65;4.13;;;;;;;25.35;56.79;99598.56;5111545;28;20216;-85
2022/06/18 08:25:00;;;;;;;4.78;3.97;;;;;;;25.21;60.11;99607.34;5111693;28;20213;-80
2022/06/18 08:27:27;;;;;;;4.88;3.55;;;;;;;25.27;56.08;99591.66;5111794;28;20736;-86
2022/06/18 08:29:53;;;;;;;6.10;3.90;;;;;;;25.43;55.30;99590.53;5111751;28;20210;-86
2022/06/18 08:32:20;;;;;;;5.50;3.60;;;;;;;25.30;55.63;99603.56;5111759;28;20279;-81
2022/06/18 08:34:46;;;;;;;6.53;3.55;;;;;;;25.61;56.35;99603.09;5111486;28;20660;-85
2022/06/18 08:37:12;;;;;;;5.85;3.70;;;;;;;25.97;58.89;99602.81;5111306;28;20233;-80
2022/06/18 08:39:40;;;;;;;4.57;3.22;;;;;;;26.16;52.69;99610.94;5111598;28;20232;-80
2022/06/18 08:42:22;;;;;;;3.67;3.25;;;;;;;25.88;52.95;99609.25;5111451;28;20249;-81
2022/06/18 08:45:07;;;;;;;4.15;3.30;;;;;;;25.86;52.71;99599.97;5111318;28;20224;-81
2022/06/18 08:48:15;;;;;;;3.72;3.25;;;;;;;25.87;53.85;99602.41;5111475;28;20248;-86
2022/06/18 08:50:54;;;;;;;4.05;3.40;;;;;;;26.03;51.63;99597.81;5111556;28;20579;-81
2022/06/18 08:53:43;;;;;;;4.80;3.50;;;;;;;25.93;52.09;99601.63;5111338;28;20217;-85
2022/06/18 08:56:14;;;;;;;5.00;3.58;;;;;;;25.89;54.25;99592.56;5111306;28;20286;-86
2022/06/18 08:58:50;;;;;;;4.00;3.60;;;;;;;25.65;51.84;99599.06;5110856;28;20216;-86
2022/06/18 09:01:20;;;;;;;6.32;3.40;;;;;;;26.01;53.62;99603.25;5111149;28;20224;-83
2022/06/18 09:04:00;;;;;;;4.38;3.28;;;;;;;26.23;51.23;99595.22;5111368;28;20210;-82
2022/06/18 09:06:38;;;;;;;5.35;3.00;;;;;;;26.19;50.29;99600.06;5110785;28;20691;-87
2022/06/18 09:09:12;;;;;;;5.80;3.30;;;;;;;26.39;50.67;99595.63;5111282;28;20209;-81
2022/06/18 09:12:00;;;;;;;4.53;3.28;;;;;;;26.60;50.81;99601.72;5111125;28;20323;-87
2022/06/18 09:14:34;;;;;;;3.60;3.30;;;;;;;26.85;52.48;99594.03;5111025;28;20254;-88
2022/06/18 09:17:09;;;;;;;6.15;3.30;;;;;;;27.14;52.73;99592.75;5110890;28;20280;-82
2022/06/18 09:19:37;;;;;;;3.63;3.30;;;;;;;27.05;50.99;99588.72;5110811;28;20963;-81
2022/06/18 09:22:10;;;;;;;4.10;3.65;;;;;;;27.14;52.34;99595.38;5110852;28;20620;-85
2022/06/18 09:24:41;;;;;;;5.35;3.33;;;;;;;26.99;48.78;99594.81;5110772;28;20380;-85
2022/06/18 09:27:12;;;;;;;4.15;2.95;;;;;;;26.66;49.77;99590.41;5110765;28;20225;-81
2022/06/18 09:29:44;;;;;;;4.75;2.80;;;;;;;27.02;48.43;99584.72;5111089;28;20723;-86
2022/06/18 09:32:15;;;;;;;8.38;3.17;;;;;;;27.03;44.89;99585.53;5110671;28;20235;-82
2022/06/18 09:34:46;;;;;;;3.20;2.90;;;;;;;27.13;47.87;99595.59;5120710;28;20224;-80
2022/06/18 09:37:17;;;;;;;4.82;2.80;;;;;;;27.03;45.78;99590.78;5115560;28;20237;-86
2022/06/18 09:39:48;;;;;;;4.72;3.35;;;;;;;27.07;47.49;99594.59;5117413;28;20216;-81
2022/06/18 09:42:20;;;;;;;5.90;3.08;;;;;;;27.43;47.67;99575.72;5110404;28;20290;-83
2022/06/18 09:44:52;;;;;;;3.13;2.83;;;;;;;27.45;47.67;99584.19;5110624;28;20217;-86
2022/06/18 09:47:26;;;;;;;3.20;2.80;;;;;;;27.26;44.67;99585.09;5110301;28;20291;-86
2022/06/18 09:49:52;;;;;;;3.38;2.85;;;;;;;27.56;46.71;99581.94;5110452;28;20216;-86
2022/06/18 09:52:25;;;;;;;4.15;3.00;;;;;;;27.32;45.24;99579.00;5110264;28;20588;-85
2022/06/18 09:54:56;;;;;;;5.22;3.35;;;;;;;27.10;45.75;99589.72;5110474;28;20217;-85
2022/06/18 09:57:25;;;;;;;8.05;3.50;;;;;;;27.33;47.93;99591.09;5110756;28;20228;-86
2022/06/18 10:00:03;;;;;;;3.30;3.00;;;;;;;27.35;45.09;99580.41;5110234;28;20213;-86
2022/06/18 10:02:33;;;;;;;3.85;3.45;;;;;;;27.45;45.88;99572.88;5110281;28;20711;-83
2022/06/18 10:07:49;;;;;;;3.30;3.00;;;;;;;27.65;44.89;99570.97;5056361;28;1528595;-83
2022/06/18 10:10:18;;;;;;;4.18;3.00;;;;;;;27.75;47.17;99571.31;5110411;28;20652;-81
2022/06/18 10:12:48;;;;;;;5.65;2.67;;;;;;;27.80;48.24;99572.53;5110946;28;20201;-81
2022/06/18 10:15:17;;;;;;;4.68;2.80;;;;;;;27.85;44.59;99568.25;5111006;28;20197;-81
2022/06/18 10:18:10;;;;;;;3.70;2.95;;;;;;;28.00;44.01;99570.59;5110876;28;20193;-81
2022/06/18 10:20:43;;;;;;;6.32;3.00;;;;;;;27.88;44.43;99573.09;5110737;28;20217;-85
2022/06/18 10:23:22;;;;;;;5.82;2.72;;;;;;;27.63;43.77;99586.13;5110844;28;20645;-84
2022/06/18 10:25:57;;;;;;;3.45;2.90;;;;;;;27.83;46.13;99574.72;5110917;28;20692;-85
2022/06/18 10:28:33;;;;;;;3.75;3.10;;;;;;;27.96;43.66;99564.16;5110485;28;20240;-82
2022/06/18 10:31:09;;;;;;;4.68;2.72;;;;;;;27.59;45.36;99563.91;5110763;28;20217;-85
2022/06/18 10:33:47;;;;;;;5.35;2.70;;;;;;;27.80;45.15;99562.81;5110603;28;20193;-84
2022/06/18 10:36:21;;;;;;;3.63;2.90;;;;;;;27.93;43.89;99559.31;5110370;28;20213;-81
2022/06/18 10:39:03;;;;;;;4.22;2.97;;;;;;;28.15;43.01;99557.94;5110585;28;20205;-81
2022/06/18 10:41:40;;;;;;;3.42;3.10;;;;;;;27.64;45.97;99566.72;5110135;28;20217;-81
2022/06/18 10:44:18;;;;;;;3.63;2.90;;;;;;;27.52;43.41;99566.59;5110477;28;20197;-81
2022/06/18 10:46:45;;;;;;;5.35;3.03;;;;;;;27.64;43.78;99550.97;5110309;28;20624;-85
2022/06/18 10:49:13;;;;;;;3.25;2.80;;;;;;;27.71;46.35;99556.97;5110429;28;20201;-81
2022/06/18 10:51:46;;;;;;;4.70;2.72;;;;;;;27.89;43.23;99550.22;5110333;28;20214;-85
2022/06/18 10:54:14;;;;;;;3.75;3.20;;;;;;;27.60;44.73;99556.84;5110496;28;20773;-85
2022/06/18 10:56:51;;;;;;;3.15;2.58;;;;;;;27.00;43.57;99554.44;5110324;28;20213;-81
2022/06/18 10:59:28;;;;;;;3.38;2.78;;;;;;;27.26;44.45;99553.59;5110059;28;20641;-85
2022/06/18 11:01:55;;;;;;;3.15;2.80;;;;;;;27.58;44.63;99557.06;5110188;28;20209;-81
2022/06/18 11:04:26;;;;;;;3.90;2.80;;;;;;;27.61;45.36;99551.38;5110126;28;20401;-86
2022/06/18 11:06:57;;;;;;;3.95;3.10;;;;;;;27.67;44.53;99555.00;5109789;28;20673;-86
2022/06/18 11:09:28;;;;;;;3.25;2.95;;;;;;;28.03;47.89;99549.13;5110424;28;20205;-86
2022/06/18 11:11:56;;;;;;;3.35;3.05;;;;;;;28.13;46.31;99533.69;5109390;28;20220;-86
2022/06/18 11:14:24;;;;;;;3.58;2.70;;;;;;;28.30;44.01;99527.88;5109430;28;20582;-86
2022/06/18 11:16:55;;;;;;;5.75;3.08;;;;;;;28.03;47.11;99537.81;5109518;28;20221;-87
2022/06/18 11:19:30;;;;;;;3.70;3.08;;;;;;;27.71;44.10;99535.97;5107786;28;20201;-84
2022/06/18 11:22:08;;;;;;;4.78;2.90;;;;;;;27.54;44.97;99542.72;5109422;28;20216;-85
2022/06/18 11:24:37;;;;;;;3.38;2.80;;;;;;;27.68;42.02;99528.50;5112067;28;20197;-84
2022/06/18 11:27:08;;;;;;;3.72;2.90;;;;;;;27.79;42.42;99537.56;5112234;28;20236;-82
2022/06/18 11:29:40;;;;;;;3.53;2.80;;;;;;;27.83;41.26;99538.75;5112139;28;20202;-84
2022/06/18 11:32:10;;;;;;;2.90;2.60;;;;;;;27.80;42.52;99543.63;5112766;28;20687;-85
2022/06/18 11:34:43;;;;;;;5.13;2.60;;;;;;;28.01;43.89;99530.13;5114005;28;20205;-86
2022/06/18 11:37:18;;;;;;;4.10;2.63;;;;;;;28.24;42.56;99526.91;5114010;28;20312;-82
2022/06/18 11:39:54;;;;;;;3.20;2.70;;;;;;;28.30;42.14;99533.13;5114141;28;20224;-82
2022/06/18 11:42:26;;;;;;;3.10;2.75;;;;;;;28.31;39.74;99534.78;5113897;28;20224;-86
2022/06/18 11:45:00;;;;;;;3.85;2.65;;;;;;;28.29;41.89;99531.53;5113787;28;20239;-85
2022/06/18 11:47:29;;;;;;;5.88;2.67;;;;;;;28.51;41.62;99535.44;5113627;28;20217;-82
2022/06/18 11:50:03;;;;;;;3.67;2.40;;;;;;;28.71;42.46;99534.41;5113668;28;20201;-85
2022/06/18 11:52:38;;;;;;;3.88;3.08;;;;;;;28.43;40.66;99525.19;5113834;28;20205;-86
2022/06/18 11:55:19;;;;;;;2.92;2.65;;;;;;;28.36;42.65;99521.75;5113712;28;20698;-85